createdAt,value
2018-08-22T00:01:47.532Z,21.06
2018-08-22T00:04:17.128Z,21.45
2018-08-22T00:06:46.815Z,21.30
2018-08-22T00:09:16.701Z,21.34
2018-08-22T00:11:46.393Z,21.88
2018-08-22T00:14:16.149Z,22.19
2018-08-22T00:16:46.006Z,21.56
2018-08-22T00:19:15.797Z,21.94
2018-08-22T00:21:45.779Z,22.10
2018-08-22T00:24:15.525Z,22.10
2018-08-22T00:26:45.288Z,22.16
2018-08-22T00:29:15.377Z,21.78
2018-08-22T00:31:45.105Z,21.76
2018-08-22T00:34:14.830Z,21.14
2018-08-22T00:36:44.751Z,20.51
2018-08-22T00:39:14.382Z,20.81
2018-08-22T00:41:44.298Z,21.40
2018-08-22T00:44:14.153Z,21.65
2018-08-22T00:46:43.985Z,21.83
2018-08-22T00:49:13.842Z,21.86
2018-08-22T00:51:43.532Z,21.90
2018-08-22T00:54:13.299Z,21.97
2018-08-22T00:56:43.226Z,22.00
2018-08-22T00:59:13.058Z,21.94
2018-08-22T01:01:42.905Z,21.97
2018-08-22T01:04:12.625Z,21.96
2018-08-22T01:06:42.385Z,21.61
2018-08-22T01:09:12.222Z,21.15
2018-08-22T01:11:42.507Z,21.48
2018-08-22T01:14:12.413Z,21.64
2018-08-22T01:16:42.224Z,21.47
2018-08-22T01:19:12.059Z,20.67
2018-08-22T01:21:41.871Z,20.58
2018-08-22T01:24:11.705Z,21.03
2018-08-22T01:26:41.546Z,21.22
2018-08-22T01:29:11.380Z,21.36
2018-08-22T01:31:41.203Z,21.28
2018-08-22T01:34:11.065Z,21.49
2018-08-22T01:36:40.766Z,21.43
2018-08-22T01:39:10.594Z,21.58
2018-08-22T01:41:40.513Z,21.22
2018-08-22T01:44:10.271Z,21.22
2018-08-22T01:46:39.977Z,21.43
2018-08-22T01:49:10.401Z,21.57
2018-08-22T01:51:40.102Z,21.56
2018-08-22T01:54:09.834Z,21.64
2018-08-22T01:56:39.573Z,21.56
2018-08-22T01:59:09.481Z,20.93
2018-08-22T02:01:39.212Z,20.89
2018-08-22T02:04:08.969Z,21.32
2018-08-22T02:06:38.722Z,21.37
2018-08-22T02:09:11.604Z,21.34
2018-08-22T02:11:41.919Z,20.93
2018-08-22T02:14:12.696Z,21.06
2018-08-22T02:16:42.598Z,20.66
2018-08-22T02:19:13.651Z,20.42
2018-08-22T02:21:43.433Z,20.18
2018-08-22T02:24:13.184Z,20.47
2018-08-22T02:26:42.837Z,20.60
2018-08-22T02:29:13.449Z,20.51
2018-08-22T02:31:43.342Z,20.38
2018-08-22T02:34:13.176Z,20.09
2018-08-22T02:36:43.014Z,20.40
2018-08-22T02:39:13.508Z,20.75
2018-08-22T02:41:43.382Z,21.12
2018-08-22T02:44:13.230Z,21.05
2018-08-22T02:46:43.134Z,20.56
2018-08-22T02:49:15.794Z,20.99
2018-08-22T02:51:45.647Z,20.82
2018-08-22T02:54:15.416Z,21.03
2018-08-22T02:56:45.122Z,20.99
2018-08-22T02:59:15.792Z,20.37
2018-08-22T03:01:45.554Z,20.05
2018-08-22T03:04:15.281Z,20.46
2018-08-22T03:06:45.016Z,20.75
2018-08-22T03:09:14.757Z,20.88
2018-08-22T03:11:44.600Z,20.88
2018-08-22T03:14:14.520Z,20.38
2018-08-22T03:16:44.224Z,20.34
2018-08-22T03:19:14.119Z,20.15
2018-08-22T03:21:43.932Z,19.88
2018-08-22T03:24:13.634Z,19.97
2018-08-22T03:26:43.501Z,20.18
2018-08-22T03:29:13.353Z,20.55
2018-08-22T03:31:43.181Z,20.70
2018-08-22T03:34:12.961Z,20.78
2018-08-22T03:36:42.725Z,20.57
2018-08-22T03:39:12.597Z,20.58
2018-08-22T03:41:42.459Z,20.90
2018-08-22T03:44:12.307Z,21.04
2018-08-22T03:46:42.021Z,21.24
2018-08-22T03:49:11.875Z,21.32
2018-08-22T03:51:41.708Z,20.96
2018-08-22T03:54:11.541Z,20.80
2018-08-22T03:56:41.366Z,20.51
2018-08-22T03:59:11.207Z,20.60
2018-08-22T04:01:41.020Z,21.00
2018-08-22T04:04:11.073Z,21.03
2018-08-22T04:06:40.932Z,21.03
2018-08-22T04:09:10.774Z,20.94
2018-08-22T04:11:40.568Z,21.35
2018-08-22T04:14:10.290Z,20.43
2018-08-22T04:16:40.426Z,19.95
2018-08-22T04:19:10.195Z,20.72
2018-08-22T04:21:40.544Z,21.05
2018-08-22T04:24:11.411Z,20.75
2018-08-22T04:26:41.863Z,21.34
2018-08-22T04:29:12.601Z,21.53
2018-08-22T04:31:43.130Z,20.98
2018-08-22T04:34:13.787Z,21.54
2018-08-22T04:36:44.354Z,21.88
2018-08-22T04:39:15.786Z,22.02
2018-08-22T04:41:46.474Z,22.35
2018-08-22T04:44:17.102Z,22.26
2018-08-22T04:46:47.555Z,22.55
2018-08-22T04:49:18.630Z,22.42
2018-08-22T04:51:48.872Z,21.24
2018-08-22T04:54:19.103Z,20.98
2018-08-22T04:56:49.539Z,20.44
2018-08-22T04:59:20.375Z,20.99
2018-08-22T05:01:50.902Z,21.33
2018-08-22T05:04:21.032Z,21.26
2018-08-22T05:06:51.751Z,21.53
2018-08-22T05:09:22.490Z,21.44
2018-08-22T05:11:52.796Z,20.97
2018-08-22T05:14:23.089Z,20.72
2018-08-22T05:16:54.241Z,20.92
2018-08-22T05:19:25.786Z,21.40
2018-08-22T05:21:56.596Z,22.30
2018-08-22T05:24:27.091Z,22.12
2018-08-22T05:26:57.216Z,21.84
2018-08-22T05:29:28.644Z,21.85
2018-08-22T05:31:59.632Z,22.25
2018-08-22T05:34:29.952Z,21.71
2018-08-22T05:36:59.685Z,22.28
2018-08-22T05:39:29.731Z,21.74
2018-08-22T05:41:59.506Z,21.53
2018-08-22T05:44:29.279Z,22.35
2018-08-22T05:46:58.997Z,21.86
2018-08-22T05:49:28.913Z,21.72
2018-08-22T05:51:58.585Z,22.00
2018-08-22T05:54:28.349Z,22.32
2018-08-22T05:56:58.103Z,22.58
2018-08-22T05:59:27.934Z,22.82
2018-08-22T06:01:57.690Z,22.99
2018-08-22T06:04:27.511Z,23.59
2018-08-22T06:06:57.274Z,23.16
2018-08-22T06:09:27.168Z,23.55
2018-08-22T06:11:57.757Z,23.75
2018-08-22T06:14:28.160Z,23.96
2018-08-22T06:16:58.351Z,24.67
2018-08-22T06:19:28.441Z,25.00
2018-08-22T06:21:58.282Z,25.62
2018-08-22T06:24:28.073Z,25.80
2018-08-22T06:26:57.881Z,26.51
2018-08-22T06:29:27.648Z,26.15
2018-08-22T06:31:57.451Z,26.36
2018-08-22T06:34:27.158Z,26.89
2018-08-22T06:36:56.787Z,25.91
2018-08-22T06:39:26.631Z,26.19
2018-08-22T06:41:56.498Z,26.61
2018-08-22T06:44:26.452Z,27.04
2018-08-22T06:46:56.149Z,27.88
2018-08-22T06:49:25.740Z,28.31
2018-08-22T06:51:55.465Z,28.67
2018-08-22T06:54:25.332Z,28.49
2018-08-22T06:56:55.264Z,28.68
2018-08-22T06:59:25.146Z,29.33
2018-08-22T07:01:54.937Z,29.30
2018-08-22T07:04:24.774Z,29.44
2018-08-22T07:06:54.485Z,29.81
2018-08-22T07:09:24.302Z,29.75
2018-08-22T07:11:54.018Z,30.54
2018-08-22T07:14:23.690Z,30.19
2018-08-22T07:16:53.441Z,30.88
2018-08-22T07:19:23.654Z,31.37
2018-08-22T07:21:53.441Z,31.80
2018-08-22T07:24:23.134Z,31.90
2018-08-22T07:26:52.917Z,31.54
2018-08-22T07:29:22.618Z,31.32
2018-08-22T07:31:52.341Z,31.86
2018-08-22T07:34:22.155Z,31.30
2018-08-22T07:36:51.781Z,32.06
2018-08-22T07:39:21.525Z,32.88
2018-08-22T07:41:51.267Z,32.59
2018-08-22T07:44:21.006Z,32.86
2018-08-22T07:46:50.797Z,32.27
2018-08-22T07:49:20.598Z,32.56
2018-08-22T07:51:50.376Z,33.14
2018-08-22T07:54:20.009Z,32.98
2018-08-22T07:56:49.786Z,33.41
2018-08-22T07:59:21.004Z,33.37
2018-08-22T08:01:50.955Z,33.43
2018-08-22T08:04:21.272Z,33.62
2018-08-22T08:06:51.028Z,34.17
2018-08-22T08:09:22.080Z,33.90
2018-08-22T08:11:51.670Z,33.37
2018-08-22T08:14:21.397Z,32.25
2018-08-22T08:16:51.294Z,32.63
2018-08-22T08:19:21.620Z,32.59
2018-08-22T08:21:51.846Z,33.58
2018-08-22T08:24:22.275Z,33.81
2018-08-22T08:26:52.121Z,33.70
2018-08-22T08:29:22.822Z,33.73
2018-08-22T08:31:52.482Z,34.78
2018-08-22T08:34:22.360Z,35.08
2018-08-22T08:36:52.248Z,35.26
2018-08-22T08:39:22.534Z,35.19
2018-08-22T08:41:52.270Z,35.15
2018-08-22T08:44:22.080Z,34.92
2018-08-22T08:46:52.018Z,35.11
2018-08-22T08:49:21.802Z,35.86
2018-08-22T08:51:59.271Z,35.86
2018-08-22T08:54:29.567Z,35.73
2018-08-22T08:56:59.615Z,35.70
2018-08-22T08:59:29.939Z,35.58
2018-08-22T09:01:59.581Z,36.06
2018-08-22T09:04:29.464Z,36.42
2018-08-22T09:06:59.562Z,36.55
2018-08-22T09:09:29.254Z,36.18
2018-08-22T09:12:00.961Z,37.44
2018-08-22T09:14:31.124Z,38.15
2018-08-22T09:17:01.068Z,38.67
2018-08-22T09:19:31.810Z,38.55
2018-08-22T09:22:02.078Z,37.75
2018-08-22T09:24:31.919Z,37.16
2018-08-22T09:27:01.711Z,37.39
2018-08-22T09:29:31.630Z,36.25
2018-08-22T09:32:01.402Z,36.94
2018-08-22T09:34:31.145Z,38.51
2018-08-22T09:37:00.952Z,37.60
2018-08-22T09:39:30.687Z,38.28
2018-08-22T09:42:00.616Z,39.02
2018-08-22T09:44:30.426Z,38.42
2018-08-22T09:47:00.423Z,38.09
2018-08-22T09:49:30.349Z,38.24
2018-08-22T09:52:00.144Z,36.29
2018-08-22T09:54:29.957Z,37.58
2018-08-22T09:57:01.843Z,36.53
2018-08-22T09:59:31.700Z,35.47
2018-08-22T10:02:01.545Z,36.81
2018-08-22T10:04:31.401Z,37.29
2018-08-22T10:07:01.282Z,37.49
2018-08-22T10:09:31.108Z,37.79
2018-08-22T10:12:01.117Z,38.42
2018-08-22T10:14:30.919Z,36.67
2018-08-22T10:17:00.735Z,37.17
2018-08-22T10:19:30.616Z,37.48
2018-08-22T10:22:00.370Z,37.92
2018-08-22T10:24:30.456Z,38.65
2018-08-22T10:27:00.384Z,38.03
2018-08-22T10:29:30.163Z,38.36
2018-08-22T10:31:59.951Z,38.46
2018-08-22T10:34:30.155Z,38.04
2018-08-22T10:36:59.981Z,36.31
2018-08-22T10:39:29.891Z,37.19
2018-08-22T10:41:59.789Z,37.47
2018-08-22T10:44:30.672Z,39.33
2018-08-22T10:47:01.400Z,36.75
2018-08-22T10:49:32.064Z,37.44
2018-08-22T10:52:02.559Z,38.75
2018-08-22T10:54:32.414Z,38.41
2018-08-22T10:57:02.147Z,37.35
2018-08-22T10:59:33.824Z,37.86
2018-08-22T11:02:04.448Z,38.58
2018-08-22T11:04:34.252Z,40.18
2018-08-22T11:07:04.157Z,39.40
2018-08-22T11:09:34.221Z,39.96
2018-08-22T11:12:04.096Z,38.03
2018-08-22T11:14:33.918Z,37.52
2018-08-22T11:17:03.716Z,37.39
2018-08-22T11:19:34.416Z,37.61
2018-08-22T11:22:14.906Z,39.14
2018-08-22T11:24:55.328Z,39.36
2018-08-22T11:27:35.656Z,40.42
2018-08-22T11:30:19.395Z,38.06
2018-08-22T11:32:59.767Z,37.76
2018-08-22T11:35:27.802Z,38.08
2018-08-22T11:37:57.584Z,38.54
2018-08-22T11:40:28.251Z,38.53
2018-08-22T11:42:57.949Z,39.82
2018-08-22T11:45:27.909Z,40.27
2018-08-22T11:47:57.776Z,41.85
2018-08-22T11:50:28.005Z,40.94
2018-08-22T11:52:57.943Z,40.20
2018-08-22T11:55:27.818Z,41.52
2018-08-22T11:57:57.611Z,42.02
2018-08-22T12:00:27.377Z,42.39
2018-08-22T12:02:57.312Z,39.34
2018-08-22T12:05:27.105Z,39.55
2018-08-22T12:07:56.838Z,40.06
2018-08-22T12:10:30.837Z,39.32
2018-08-22T12:13:03.155Z,36.71
2018-08-22T12:15:33.586Z,37.26
2018-08-22T12:18:03.327Z,38.06
2018-08-22T12:20:33.420Z,38.72
2018-08-22T12:23:03.329Z,38.76
2018-08-22T12:25:34.408Z,39.06
2018-08-22T12:28:04.971Z,38.34
2018-08-22T12:30:34.981Z,39.36
2018-08-22T12:33:04.742Z,39.74
2018-08-22T12:35:34.523Z,40.36
2018-08-22T12:38:04.496Z,39.09
2018-08-22T12:40:34.182Z,37.72
2018-08-22T12:43:03.920Z,38.95
2018-08-22T12:45:33.697Z,39.34
2018-08-22T12:48:03.473Z,39.56
2018-08-22T12:50:36.493Z,39.39
2018-08-22T12:53:06.714Z,39.29
2018-08-22T12:55:36.267Z,37.91
2018-08-22T12:58:05.982Z,39.28
2018-08-22T13:00:36.578Z,39.05
2018-08-22T13:03:06.396Z,38.78
2018-08-22T13:05:36.338Z,37.64
2018-08-22T13:08:06.193Z,37.87
2018-08-22T13:10:36.082Z,37.76
2018-08-22T13:13:05.965Z,37.20
2018-08-22T13:15:35.659Z,37.53
2018-08-22T13:18:05.498Z,37.53
2018-08-22T13:20:35.339Z,36.61
2018-08-22T13:23:04.984Z,36.48
2018-08-22T13:25:34.696Z,36.41
2018-08-22T13:28:04.902Z,35.84
2018-08-22T13:30:34.578Z,35.88
2018-08-22T13:33:04.379Z,35.60
2018-08-22T13:35:34.291Z,35.01
2018-08-22T13:38:04.783Z,34.78
2018-08-22T13:43:13.237Z,33.87
2018-08-22T13:45:42.971Z,34.14
2018-08-22T13:48:12.769Z,33.58
2018-08-22T13:50:43.160Z,33.60
2018-08-22T13:53:13.284Z,33.98
2018-08-22T13:55:43.120Z,33.67
2018-08-22T13:58:13.118Z,34.56
2018-08-22T14:00:43.809Z,34.18
2018-08-22T14:03:13.728Z,32.98
2018-08-22T14:05:43.553Z,32.33
2018-08-22T14:08:13.418Z,32.15
2018-08-22T14:10:43.172Z,32.24
2018-08-22T14:13:13.019Z,32.89
2018-08-22T14:15:42.778Z,33.15
2018-08-22T14:18:12.581Z,32.82
2018-08-22T14:20:42.634Z,33.23
2018-08-22T14:23:12.429Z,33.54
2018-08-22T14:25:42.178Z,33.38
2018-08-22T14:28:12.492Z,33.47
2018-08-22T14:30:42.195Z,33.45
2018-08-22T14:33:11.838Z,33.26
2018-08-22T14:35:41.579Z,32.26
2018-08-22T14:38:11.320Z,32.31
2018-08-22T14:40:41.192Z,32.63
2018-08-22T14:43:10.883Z,32.34
2018-08-22T14:45:40.830Z,32.50
2018-08-22T14:48:10.644Z,32.30
2018-08-22T14:50:40.492Z,32.19
2018-08-22T14:53:10.368Z,32.24
2018-08-22T14:55:40.148Z,32.59
2018-08-22T14:58:09.955Z,32.17
2018-08-22T15:00:39.649Z,32.37
2018-08-22T15:03:09.638Z,31.98
2018-08-22T15:05:39.019Z,31.62
2018-08-22T15:08:08.844Z,32.00
2018-08-22T15:10:38.644Z,31.61
2018-08-22T15:13:08.622Z,31.45
2018-08-22T15:15:38.323Z,31.37
2018-08-22T15:18:08.239Z,31.69
2018-08-22T15:20:38.014Z,31.26
2018-08-22T15:23:07.854Z,31.25
2018-08-22T15:25:37.680Z,31.54
2018-08-22T15:28:07.560Z,31.36
2018-08-22T15:30:37.756Z,31.10
2018-08-22T15:33:07.456Z,31.05
2018-08-22T15:35:37.334Z,31.29
2018-08-22T15:38:07.317Z,31.38
2018-08-22T15:40:37.048Z,31.19
2018-08-22T15:43:06.771Z,30.97
2018-08-22T15:45:36.331Z,30.98
2018-08-22T15:48:06.181Z,31.27
2018-08-22T15:50:35.954Z,31.25
2018-08-22T15:53:05.949Z,31.47
2018-08-22T15:55:35.757Z,31.56
2018-08-22T15:58:06.617Z,31.44
2018-08-22T16:00:47.563Z,31.52
2018-08-22T16:03:17.443Z,31.32
2018-08-22T16:05:48.014Z,30.91
2018-08-22T16:08:21.517Z,30.97
2018-08-22T16:10:52.317Z,31.11
2018-08-22T16:13:27.036Z,31.27
2018-08-22T16:15:57.950Z,31.16
2018-08-22T16:18:27.759Z,30.42
2018-08-22T16:20:59.576Z,30.41
2018-08-22T16:23:35.430Z,30.41
2018-08-22T16:26:06.150Z,30.34
2018-08-22T16:28:49.216Z,29.97
2018-08-22T16:31:21.397Z,30.30
2018-08-22T16:33:51.243Z,30.33
2018-08-22T16:36:26.093Z,29.90
2018-08-22T16:38:55.944Z,30.10
2018-08-22T16:41:26.119Z,29.82
2018-08-22T16:43:55.994Z,29.99
2018-08-22T16:46:25.831Z,30.01
2018-08-22T16:48:56.411Z,29.90
2018-08-22T16:51:26.393Z,30.08
2018-08-22T16:54:02.163Z,30.20
2018-08-22T16:56:34.509Z,29.90
2018-08-22T16:59:08.801Z,30.03
2018-08-22T17:01:42.449Z,29.08
2018-08-22T17:04:12.297Z,29.02
2018-08-22T17:06:42.170Z,29.42
2018-08-22T17:09:13.398Z,29.36
2018-08-22T17:11:44.387Z,29.16
2018-08-22T17:14:14.203Z,29.28
2018-08-22T17:16:43.953Z,29.32
2018-08-22T17:19:13.758Z,29.05
2018-08-22T17:21:43.546Z,28.73
2018-08-22T17:24:13.867Z,28.91
2018-08-22T17:26:44.005Z,28.44
2018-08-22T17:29:13.824Z,27.88
2018-08-22T17:31:47.227Z,28.04
2018-08-22T17:34:17.443Z,28.17
2018-08-22T17:36:56.742Z,27.67
2018-08-22T17:39:31.013Z,27.89
2018-08-22T17:42:01.551Z,28.07
2018-08-22T17:44:31.427Z,27.80
2018-08-22T17:47:01.200Z,28.00
2018-08-22T17:49:31.393Z,27.73
2018-08-22T17:52:05.126Z,27.77
2018-08-22T17:54:35.236Z,27.75
2018-08-22T17:57:19.574Z,27.86
2018-08-22T17:59:49.465Z,27.78
2018-08-22T18:02:20.394Z,27.69
2018-08-22T18:05:00.487Z,27.33
2018-08-22T18:07:30.457Z,27.48
2018-08-22T18:10:00.644Z,26.84
2018-08-22T18:12:30.990Z,26.30
2018-08-22T18:15:03.471Z,26.39
2018-08-22T18:17:33.401Z,26.41
2018-08-22T18:20:03.247Z,26.40
2018-08-22T18:22:37.294Z,25.86
2018-08-22T18:25:07.662Z,25.48
2018-08-22T18:27:37.473Z,25.62
2018-08-22T18:30:10.544Z,26.03
2018-08-22T18:32:41.669Z,25.80
2018-08-22T18:35:12.543Z,26.22
2018-08-22T18:37:43.023Z,26.18
2018-08-22T18:40:20.331Z,25.83
2018-08-22T18:42:55.147Z,25.99
2018-08-22T18:45:25.729Z,25.63
2018-08-22T18:47:55.482Z,25.82
2018-08-22T18:50:25.626Z,25.87
2018-08-22T18:52:57.813Z,25.60
2018-08-22T18:55:35.688Z,25.38
2018-08-22T18:58:06.302Z,25.39
2018-08-22T19:00:37.595Z,25.48
2018-08-22T19:03:08.013Z,25.70
2018-08-22T19:05:38.695Z,25.69
2018-08-22T19:08:15.610Z,25.83
2018-08-22T19:10:46.906Z,25.71
2018-08-22T19:13:22.260Z,25.75
2018-08-22T19:15:58.264Z,25.71
2018-08-22T19:18:28.128Z,25.92
2018-08-22T19:21:04.454Z,25.85
2018-08-22T19:26:17.956Z,25.88
2018-08-22T19:28:57.385Z,25.47
2018-08-22T19:31:27.160Z,25.55
2018-08-22T19:33:57.758Z,25.90
2018-08-22T19:36:28.035Z,25.78
2018-08-22T19:38:57.846Z,25.83
2018-08-22T19:41:31.466Z,25.80
2018-08-22T19:44:02.233Z,25.57
2018-08-22T19:46:32.239Z,25.84
2018-08-22T19:49:02.803Z,25.95
2018-08-22T19:51:32.529Z,25.82
2018-08-22T19:54:05.286Z,25.99
2018-08-22T19:56:36.685Z,25.99
2018-08-22T19:59:06.837Z,25.57
2018-08-22T20:01:38.435Z,25.71
2018-08-22T20:04:08.572Z,25.07
2018-08-22T20:06:38.411Z,24.85
2018-08-22T20:09:08.428Z,25.41
2018-08-22T20:11:38.446Z,25.55
2018-08-22T20:14:07.976Z,25.73
2018-08-22T20:16:37.775Z,25.08
2018-08-22T20:19:07.812Z,25.13
2018-08-22T20:21:39.070Z,25.15
2018-08-22T20:24:12.542Z,24.92
2018-08-22T20:26:51.071Z,25.15
2018-08-22T20:29:20.972Z,25.38
2018-08-22T20:31:50.898Z,25.55
2018-08-22T20:34:21.059Z,25.45
2018-08-22T20:36:50.952Z,24.88
2018-08-22T20:39:20.823Z,24.71
2018-08-22T20:41:56.569Z,25.09
2018-08-22T20:44:26.988Z,24.93
2018-08-22T20:46:56.861Z,25.18
2018-08-22T20:49:26.932Z,25.12
2018-08-22T20:51:56.825Z,25.26
2018-08-22T20:54:27.658Z,25.30
2018-08-22T20:57:00.731Z,25.26
2018-08-22T20:59:30.639Z,24.85
2018-08-22T21:02:03.881Z,24.60
2018-08-22T21:04:34.406Z,24.86
2018-08-22T21:07:04.850Z,24.92
2018-08-22T21:09:34.705Z,24.87
2018-08-22T21:12:05.087Z,24.84
2018-08-22T21:14:35.148Z,24.17
2018-08-22T21:17:04.993Z,23.53
2018-08-22T21:19:34.757Z,23.51
2018-08-22T21:22:09.007Z,23.53
2018-08-22T21:24:39.505Z,23.32
2018-08-22T21:27:09.233Z,23.56
2018-08-22T21:29:39.123Z,23.81
2018-08-22T21:32:09.496Z,23.68
2018-08-22T21:34:40.035Z,23.88
2018-08-22T21:37:20.626Z,24.19
2018-08-22T21:39:50.405Z,24.39
2018-08-22T21:42:24.203Z,24.51
2018-08-22T21:44:54.555Z,24.46
2018-08-22T21:47:24.401Z,24.51
2018-08-22T21:49:55.090Z,24.47
2018-08-22T21:52:25.149Z,24.51
2018-08-22T21:54:55.791Z,24.50
2018-08-22T21:57:25.505Z,24.29
2018-08-22T22:00:00.468Z,24.26
2018-08-22T22:02:30.350Z,24.28
2018-08-22T22:05:01.088Z,24.28
2018-08-22T22:07:30.889Z,24.34
2018-08-22T22:10:05.758Z,24.40
2018-08-22T22:12:37.635Z,24.33
2018-08-22T22:15:08.418Z,24.32
2018-08-22T22:17:38.340Z,24.33
2018-08-22T22:20:08.219Z,24.29
2018-08-22T22:22:38.068Z,23.69
2018-08-22T22:25:09.028Z,23.29
2018-08-22T22:27:38.986Z,23.04
2018-08-22T22:30:08.866Z,22.62
2018-08-22T22:32:38.742Z,22.47
2018-08-22T22:35:08.907Z,22.71
2018-08-22T22:37:38.720Z,22.74
2018-08-22T22:40:08.634Z,23.37
2018-08-22T22:42:38.912Z,23.34
2018-08-22T22:45:08.740Z,22.60
2018-08-22T22:47:38.511Z,22.42
2018-08-22T22:50:08.415Z,22.44
2018-08-22T22:52:43.412Z,22.54
2018-08-22T22:55:14.511Z,22.33
2018-08-22T22:57:44.975Z,22.60
2018-08-22T23:00:16.270Z,22.36
2018-08-22T23:02:46.992Z,22.81
2018-08-22T23:05:17.244Z,22.95
2018-08-22T23:07:47.074Z,23.19
2018-08-22T23:10:16.891Z,23.30
2018-08-22T23:12:47.803Z,23.26
2018-08-22T23:15:22.548Z,23.25
2018-08-22T23:17:54.381Z,22.95
2018-08-22T23:20:30.946Z,23.09
2018-08-22T23:23:00.777Z,23.25
2018-08-22T23:25:31.425Z,23.34
2018-08-22T23:28:01.246Z,23.57
2018-08-22T23:30:38.116Z,23.39
2018-08-22T23:33:08.394Z,23.07
2018-08-22T23:35:39.207Z,23.13
2018-08-22T23:38:17.602Z,23.23
2018-08-22T23:40:48.877Z,23.43
2018-08-22T23:43:18.678Z,23.44
2018-08-22T23:45:55.269Z,23.49
2018-08-22T23:48:30.257Z,22.97
2018-08-22T23:51:05.811Z,23.21
2018-08-22T23:53:41.232Z,22.50
2018-08-22T23:56:19.475Z,22.35
2018-08-22T23:58:50.135Z,22.02
